sensor_id;sensor_type;location;lat;lon;timestamp;temperature;humidity
10903;DHT22;5504;47.312;11.060;2022-10-23T00:01:28;10.10;96.40
10903;DHT22;5504;47.312;11.060;2022-10-23T00:04:03;10.20;96.10
10903;DHT22;5504;47.312;11.060;2022-10-23T00:06:31;10.20;95.80
10903;DHT22;5504;47.312;11.060;2022-10-23T00:08:57;10.20;95.80
10903;DHT22;5504;47.312;11.060;2022-10-23T00:11:25;10.00;95.70
10903;DHT22;5504;47.312;11.060;2022-10-23T00:13:53;9.90;96.00
10903;DHT22;5504;47.312;11.060;2022-10-23T00:16:19;9.80;96.10
10903;DHT22;5504;47.312;11.060;2022-10-23T00:18:45;9.90;96.30
10903;DHT22;5504;47.312;11.060;2022-10-23T00:21:12;9.90;96.10
10903;DHT22;5504;47.312;11.060;2022-10-23T00:23:38;10.00;96.10
10903;DHT22;5504;47.312;11.060;2022-10-23T00:26:05;10.10;95.80
10903;DHT22;5504;47.312;11.060;2022-10-23T00:28:33;10.10;95.70
10903;DHT22;5504;47.312;11.060;2022-10-23T00:31:03;10.10;95.50
10903;DHT22;5504;47.312;11.060;2022-10-23T00:33:28;10.00;95.50
10903;DHT22;5504;47.312;11.060;2022-10-23T00:35:54;10.00;95.70
10903;DHT22;5504;47.312;11.060;2022-10-23T00:38:20;9.90;95.60
10903;DHT22;5504;47.312;11.060;2022-10-23T00:40:45;9.90;95.70
10903;DHT22;5504;47.312;11.060;2022-10-23T00:43:27;9.80;95.60
10903;DHT22;5504;47.312;11.060;2022-10-23T00:45:53;9.90;95.60
10903;DHT22;5504;47.312;11.060;2022-10-23T00:48:19;9.90;95.50
10903;DHT22;5504;47.312;11.060;2022-10-23T00:50:46;9.90;95.60
10903;DHT22;5504;47.312;11.060;2022-10-23T00:53:13;9.90;95.50
10903;DHT22;5504;47.312;11.060;2022-10-23T00:55:41;9.90;95.30
10903;DHT22;5504;47.312;11.060;2022-10-23T00:58:12;9.80;95.20
10903;DHT22;5504;47.312;11.060;2022-10-23T01:03:13;9.60;95.60
10903;DHT22;5504;47.312;11.060;2022-10-23T01:06:10;9.60;96.10
10903;DHT22;5504;47.312;11.060;2022-10-23T01:08:49;9.60;96.20
10903;DHT22;5504;47.312;11.060;2022-10-23T01:22:19;9.40;96.00
10903;DHT22;5504;47.312;11.060;2022-10-23T01:37:50;9.40;95.60
10903;DHT22;5504;47.312;11.060;2022-10-23T01:40:33;9.30;95.60
10903;DHT22;5504;47.312;11.060;2022-10-23T01:43:04;9.20;95.90
10903;DHT22;5504;47.312;11.060;2022-10-23T01:45:43;9.30;96.00
10903;DHT22;5504;47.312;11.060;2022-10-23T01:48:12;9.40;96.00
10903;DHT22;5504;47.312;11.060;2022-10-23T01:50:40;9.50;95.80
10903;DHT22;5504;47.312;11.060;2022-10-23T01:53:08;9.40;95.60
10903;DHT22;5504;47.312;11.060;2022-10-23T01:55:36;9.30;95.70
10903;DHT22;5504;47.312;11.060;2022-10-23T01:58:04;9.20;96.40
10903;DHT22;5504;47.312;11.060;2022-10-23T02:00:34;9.20;96.40
10903;DHT22;5504;47.312;11.060;2022-10-23T02:03:01;9.20;96.50
10903;DHT22;5504;47.312;11.060;2022-10-23T02:05:30;9.30;96.30
10903;DHT22;5504;47.312;11.060;2022-10-23T02:07:57;9.30;96.40
10903;DHT22;5504;47.312;11.060;2022-10-23T02:10:38;9.50;95.90
10903;DHT22;5504;47.312;11.060;2022-10-23T02:13:33;9.50;95.50
10903;DHT22;5504;47.312;11.060;2022-10-23T02:21:08;9.30;95.80
10903;DHT22;5504;47.312;11.060;2022-10-23T02:24:01;9.30;96.00
10903;DHT22;5504;47.312;11.060;2022-10-23T02:26:38;9.40;96.00
10903;DHT22;5504;47.312;11.060;2022-10-23T02:29:23;9.30;96.00
10903;DHT22;5504;47.312;11.060;2022-10-23T02:31:50;9.40;96.40
10903;DHT22;5504;47.312;11.060;2022-10-23T02:34:17;9.50;96.20
10903;DHT22;5504;47.312;11.060;2022-10-23T02:36:43;9.40;95.60
10903;DHT22;5504;47.312;11.060;2022-10-23T02:39:09;9.30;95.70
10903;DHT22;5504;47.312;11.060;2022-10-23T02:41:48;9.20;95.80
10903;DHT22;5504;47.312;11.060;2022-10-23T02:50:09;9.30;95.50
10903;DHT22;5504;47.312;11.060;2022-10-23T02:53:26;9.10;96.00
10903;DHT22;5504;47.312;11.060;2022-10-23T03:01:48;9.00;96.00
10903;DHT22;5504;47.312;11.060;2022-10-23T03:04:16;8.90;96.60
10903;DHT22;5504;47.312;11.060;2022-10-23T03:06:43;9.10;96.70
10903;DHT22;5504;47.312;11.060;2022-10-23T03:09:09;9.20;96.30
10903;DHT22;5504;47.312;11.060;2022-10-23T03:11:35;9.10;96.20
10903;DHT22;5504;47.312;11.060;2022-10-23T03:14:01;9.10;96.30
10903;DHT22;5504;47.312;11.060;2022-10-23T03:16:27;9.10;96.40
10903;DHT22;5504;47.312;11.060;2022-10-23T03:18:53;9.10;96.50
10903;DHT22;5504;47.312;11.060;2022-10-23T03:21:18;9.20;96.50
10903;DHT22;5504;47.312;11.060;2022-10-23T03:23:44;9.10;96.30
10903;DHT22;5504;47.312;11.060;2022-10-23T03:26:10;9.10;96.30
10903;DHT22;5504;47.312;11.060;2022-10-23T03:28:35;9.10;96.60
10903;DHT22;5504;47.312;11.060;2022-10-23T03:31:02;9.20;96.40
10903;DHT22;5504;47.312;11.060;2022-10-23T03:33:29;9.10;96.10
10903;DHT22;5504;47.312;11.060;2022-10-23T03:35:54;9.20;96.20
10903;DHT22;5504;47.312;11.060;2022-10-23T03:38:20;9.20;96.20
10903;DHT22;5504;47.312;11.060;2022-10-23T03:40:46;9.00;96.30
10903;DHT22;5504;47.312;11.060;2022-10-23T03:43:12;9.00;96.70
10903;DHT22;5504;47.312;11.060;2022-10-23T03:45:38;9.00;96.80
10903;DHT22;5504;47.312;11.060;2022-10-23T03:48:07;9.10;96.90
10903;DHT22;5504;47.312;11.060;2022-10-23T03:50:33;9.30;96.50
10903;DHT22;5504;47.312;11.060;2022-10-23T03:52:59;9.30;96.10
10903;DHT22;5504;47.312;11.060;2022-10-23T03:55:24;9.10;95.60
10903;DHT22;5504;47.312;11.060;2022-10-23T03:57:52;9.00;96.10
10903;DHT22;5504;47.312;11.060;2022-10-23T04:00:18;9.00;96.40
10903;DHT22;5504;47.312;11.060;2022-10-23T04:02:44;9.00;96.20
10903;DHT22;5504;47.312;11.060;2022-10-23T04:05:10;9.00;96.50
10903;DHT22;5504;47.312;11.060;2022-10-23T04:07:36;8.90;96.80
10903;DHT22;5504;47.312;11.060;2022-10-23T04:10:03;8.40;97.50
10903;DHT22;5504;47.312;11.060;2022-10-23T04:12:29;8.50;98.30
10903;DHT22;5504;47.312;11.060;2022-10-23T04:14:55;8.70;98.30
10903;DHT22;5504;47.312;11.060;2022-10-23T04:17:21;8.80;98.20
10903;DHT22;5504;47.312;11.060;2022-10-23T04:19:47;9.00;97.90
10903;DHT22;5504;47.312;11.060;2022-10-23T04:22:12;9.00;97.50
10903;DHT22;5504;47.312;11.060;2022-10-23T04:24:38;9.10;97.30
10903;DHT22;5504;47.312;11.060;2022-10-23T04:27:09;9.10;96.70
10903;DHT22;5504;47.312;11.060;2022-10-23T04:29:35;9.00;96.30
10903;DHT22;5504;47.312;11.060;2022-10-23T04:32:00;9.00;96.60
10903;DHT22;5504;47.312;11.060;2022-10-23T04:34:26;9.00;96.70
10903;DHT22;5504;47.312;11.060;2022-10-23T04:36:52;9.20;96.50
10903;DHT22;5504;47.312;11.060;2022-10-23T04:39:18;9.30;96.10
10903;DHT22;5504;47.312;11.060;2022-10-23T04:41:44;9.30;95.90
10903;DHT22;5504;47.312;11.060;2022-10-23T04:44:09;9.20;95.50
10903;DHT22;5504;47.312;11.060;2022-10-23T04:46:35;9.10;95.70
10903;DHT22;5504;47.312;11.060;2022-10-23T04:49:01;8.80;96.20
10903;DHT22;5504;47.312;11.060;2022-10-23T04:51:26;9.00;96.30
10903;DHT22;5504;47.312;11.060;2022-10-23T04:53:52;9.00;96.10
10903;DHT22;5504;47.312;11.060;2022-10-23T04:56:18;9.00;96.00
10903;DHT22;5504;47.312;11.060;2022-10-23T04:58:43;8.90;96.00
10903;DHT22;5504;47.312;11.060;2022-10-23T05:01:09;8.70;96.20
10903;DHT22;5504;47.312;11.060;2022-10-23T05:03:36;8.80;96.60
10903;DHT22;5504;47.312;11.060;2022-10-23T05:06:02;8.60;97.50
10903;DHT22;5504;47.312;11.060;2022-10-23T05:08:28;8.70;97.50
10903;DHT22;5504;47.312;11.060;2022-10-23T05:10:54;8.70;97.10
10903;DHT22;5504;47.312;11.060;2022-10-23T05:13:20;8.60;96.90
10903;DHT22;5504;47.312;11.060;2022-10-23T05:15:47;8.70;97.30
10903;DHT22;5504;47.312;11.060;2022-10-23T05:18:37;8.70;97.10
10903;DHT22;5504;47.312;11.060;2022-10-23T05:21:11;8.80;97.10
10903;DHT22;5504;47.312;11.060;2022-10-23T05:23:40;8.80;96.90
10903;DHT22;5504;47.312;11.060;2022-10-23T05:26:06;8.70;96.70
10903;DHT22;5504;47.312;11.060;2022-10-23T05:28:32;8.70;96.80
10903;DHT22;5504;47.312;11.060;2022-10-23T05:31:00;8.80;96.60
10903;DHT22;5504;47.312;11.060;2022-10-23T05:33:27;8.60;96.50
10903;DHT22;5504;47.312;11.060;2022-10-23T05:35:54;8.80;97.10
10903;DHT22;5504;47.312;11.060;2022-10-23T05:38:20;8.90;96.80
10903;DHT22;5504;47.312;11.060;2022-10-23T05:40:46;8.80;96.50
10903;DHT22;5504;47.312;11.060;2022-10-23T05:43:12;9.00;96.40
10903;DHT22;5504;47.312;11.060;2022-10-23T05:45:37;8.90;96.40
10903;DHT22;5504;47.312;11.060;2022-10-23T05:48:03;8.90;96.50
10903;DHT22;5504;47.312;11.060;2022-10-23T05:50:29;8.90;96.60
10903;DHT22;5504;47.312;11.060;2022-10-23T05:52:55;8.80;96.50
10903;DHT22;5504;47.312;11.060;2022-10-23T05:55:20;8.80;96.60
10903;DHT22;5504;47.312;11.060;2022-10-23T05:57:46;8.80;96.50
10903;DHT22;5504;47.312;11.060;2022-10-23T06:00:12;8.80;96.70
10903;DHT22;5504;47.312;11.060;2022-10-23T06:02:38;8.70;96.40
10903;DHT22;5504;47.312;11.060;2022-10-23T06:05:03;8.70;96.60
10903;DHT22;5504;47.312;11.060;2022-10-23T06:07:30;8.70;96.90
10903;DHT22;5504;47.312;11.060;2022-10-23T06:09:56;8.80;97.00
10903;DHT22;5504;47.312;11.060;2022-10-23T06:12:22;8.80;96.90
10903;DHT22;5504;47.312;11.060;2022-10-23T06:14:47;8.80;96.80
10903;DHT22;5504;47.312;11.060;2022-10-23T06:17:14;8.80;96.80
10903;DHT22;5504;47.312;11.060;2022-10-23T06:19:39;8.90;96.90
10903;DHT22;5504;47.312;11.060;2022-10-23T06:22:05;9.00;96.70
10903;DHT22;5504;47.312;11.060;2022-10-23T06:24:31;8.80;96.70
10903;DHT22;5504;47.312;11.060;2022-10-23T06:26:57;8.90;97.10
10903;DHT22;5504;47.312;11.060;2022-10-23T06:29:22;9.00;97.10
10903;DHT22;5504;47.312;11.060;2022-10-23T06:31:48;9.10;97.10
10903;DHT22;5504;47.312;11.060;2022-10-23T06:34:14;9.20;96.80
10903;DHT22;5504;47.312;11.060;2022-10-23T06:36:40;9.20;96.30
10903;DHT22;5504;47.312;11.060;2022-10-23T06:39:06;9.20;96.40
10903;DHT22;5504;47.312;11.060;2022-10-23T06:41:32;9.10;97.00
10903;DHT22;5504;47.312;11.060;2022-10-23T06:43:58;9.30;97.30
10903;DHT22;5504;47.312;11.060;2022-10-23T06:46:24;9.60;97.20
10903;DHT22;5504;47.312;11.060;2022-10-23T06:48:51;9.90;97.00
10903;DHT22;5504;47.312;11.060;2022-10-23T06:51:18;10.20;96.60
10903;DHT22;5504;47.312;11.060;2022-10-23T06:53:44;10.50;96.60
10903;DHT22;5504;47.312;11.060;2022-10-23T06:56:11;11.10;96.20
10903;DHT22;5504;47.312;11.060;2022-10-23T06:58:38;11.40;95.10
10903;DHT22;5504;47.312;11.060;2022-10-23T07:01:06;11.60;94.80
10903;DHT22;5504;47.312;11.060;2022-10-23T07:03:33;11.90;94.80
10903;DHT22;5504;47.312;11.060;2022-10-23T07:06:06;12.20;94.10
10903;DHT22;5504;47.312;11.060;2022-10-23T07:08:32;12.50;93.90
10903;DHT22;5504;47.312;11.060;2022-10-23T07:11:05;12.70;93.70
10903;DHT22;5504;47.312;11.060;2022-10-23T07:13:32;12.90;93.10
10903;DHT22;5504;47.312;11.060;2022-10-23T07:15:58;13.50;93.50
10903;DHT22;5504;47.312;11.060;2022-10-23T07:18:24;13.70;92.40
10903;DHT22;5504;47.312;11.060;2022-10-23T07:20:56;14.10;92.30
10903;DHT22;5504;47.312;11.060;2022-10-23T07:23:22;14.30;91.60
10903;DHT22;5504;47.312;11.060;2022-10-23T07:25:48;14.10;91.30
10903;DHT22;5504;47.312;11.060;2022-10-23T07:28:13;14.10;91.30
10903;DHT22;5504;47.312;11.060;2022-10-23T07:30:39;13.80;90.90
10903;DHT22;5504;47.312;11.060;2022-10-23T07:33:05;13.90;91.70
10903;DHT22;5504;47.312;11.060;2022-10-23T07:35:32;14.10;91.10
10903;DHT22;5504;47.312;11.060;2022-10-23T07:38:00;14.00;91.10
10903;DHT22;5504;47.312;11.060;2022-10-23T07:40:26;13.80;91.80
10903;DHT22;5504;47.312;11.060;2022-10-23T07:42:52;13.40;92.20
10903;DHT22;5504;47.312;11.060;2022-10-23T07:45:17;13.40;92.50
10903;DHT22;5504;47.312;11.060;2022-10-23T07:47:49;13.50;92.70
10903;DHT22;5504;47.312;11.060;2022-10-23T07:50:15;13.40;92.60
10903;DHT22;5504;47.312;11.060;2022-10-23T07:52:40;13.40;93.00
10903;DHT22;5504;47.312;11.060;2022-10-23T07:55:06;13.70;93.10
10903;DHT22;5504;47.312;11.060;2022-10-23T07:57:32;13.50;92.10
10903;DHT22;5504;47.312;11.060;2022-10-23T07:59:58;13.40;91.90
10903;DHT22;5504;47.312;11.060;2022-10-23T08:02:23;13.70;92.20
10903;DHT22;5504;47.312;11.060;2022-10-23T08:04:49;13.70;91.70
10903;DHT22;5504;47.312;11.060;2022-10-23T08:07:15;13.90;91.70
10903;DHT22;5504;47.312;11.060;2022-10-23T08:09:41;14.20;91.60
10903;DHT22;5504;47.312;11.060;2022-10-23T08:12:07;14.70;91.60
10903;DHT22;5504;47.312;11.060;2022-10-23T08:14:33;14.80;91.20
10903;DHT22;5504;47.312;11.060;2022-10-23T08:16:59;14.80;91.60
10903;DHT22;5504;47.312;11.060;2022-10-23T08:19:25;15.00;91.00
10903;DHT22;5504;47.312;11.060;2022-10-23T08:21:50;14.90;91.30
10903;DHT22;5504;47.312;11.060;2022-10-23T08:24:19;14.80;91.50
10903;DHT22;5504;47.312;11.060;2022-10-23T08:26:44;14.90;91.30
10903;DHT22;5504;47.312;11.060;2022-10-23T08:29:10;14.30;91.40
10903;DHT22;5504;47.312;11.060;2022-10-23T08:31:36;14.50;92.10
10903;DHT22;5504;47.312;11.060;2022-10-23T08:34:01;14.80;92.00
10903;DHT22;5504;47.312;11.060;2022-10-23T08:36:27;15.10;91.70
10903;DHT22;5504;47.312;11.060;2022-10-23T08:38:55;15.80;92.00
10903;DHT22;5504;47.312;11.060;2022-10-23T08:41:38;16.50;90.10
10903;DHT22;5504;47.312;11.060;2022-10-23T08:55:14;17.80;82.60
10903;DHT22;5504;47.312;11.060;2022-10-23T08:57:52;16.80;82.40
10903;DHT22;5504;47.312;11.060;2022-10-23T09:00:19;16.50;83.20
10903;DHT22;5504;47.312;11.060;2022-10-23T09:02:48;17.40;83.90
10903;DHT22;5504;47.312;11.060;2022-10-23T09:05:27;18.70;82.50
10903;DHT22;5504;47.312;11.060;2022-10-23T09:13:44;21.20;73.20
10903;DHT22;5504;47.312;11.060;2022-10-23T09:16:28;20.00;71.80
10903;DHT22;5504;47.312;11.060;2022-10-23T09:18:57;20.20;74.80
10903;DHT22;5504;47.312;11.060;2022-10-23T09:21:29;20.80;74.20
10903;DHT22;5504;47.312;11.060;2022-10-23T09:23:55;21.20;71.30
10903;DHT22;5504;47.312;11.060;2022-10-23T09:26:21;21.70;71.50
10903;DHT22;5504;47.312;11.060;2022-10-23T09:28:50;22.20;68.80
10903;DHT22;5504;47.312;11.060;2022-10-23T09:31:17;22.60;67.60
10903;DHT22;5504;47.312;11.060;2022-10-23T09:34:17;20.70;68.40
10903;DHT22;5504;47.312;11.060;2022-10-23T09:36:49;21.10;68.70
10903;DHT22;5504;47.312;11.060;2022-10-23T09:39:22;22.00;68.60
10903;DHT22;5504;47.312;11.060;2022-10-23T09:41:48;22.70;66.70
10903;DHT22;5504;47.312;11.060;2022-10-23T09:44:18;22.80;63.90
10903;DHT22;5504;47.312;11.060;2022-10-23T09:46:46;22.10;64.90
10903;DHT22;5504;47.312;11.060;2022-10-23T09:54:43;22.10;65.20
10903;DHT22;5504;47.312;11.060;2022-10-23T09:57:41;21.20;66.00
10903;DHT22;5504;47.312;11.060;2022-10-23T10:00:24;20.80;67.90
10903;DHT22;5504;47.312;11.060;2022-10-23T10:03:01;20.90;69.90
10903;DHT22;5504;47.312;11.060;2022-10-23T10:05:35;20.90;69.00
10903;DHT22;5504;47.312;11.060;2022-10-23T10:10:34;20.70;68.70
10903;DHT22;5504;47.312;11.060;2022-10-23T10:21:55;21.00;69.20
10903;DHT22;5504;47.312;11.060;2022-10-23T10:30:04;21.20;66.30
10903;DHT22;5504;47.312;11.060;2022-10-23T10:32:50;21.30;67.40
10903;DHT22;5504;47.312;11.060;2022-10-23T10:40:29;21.50;66.10
10903;DHT22;5504;47.312;11.060;2022-10-23T10:43:23;21.90;68.00
10903;DHT22;5504;47.312;11.060;2022-10-23T10:46:09;22.10;66.60
10903;DHT22;5504;47.312;11.060;2022-10-23T10:49:00;22.00;66.40
10903;DHT22;5504;47.312;11.060;2022-10-23T10:56:40;22.50;65.80
10903;DHT22;5504;47.312;11.060;2022-10-23T11:01:50;22.40;66.40
10903;DHT22;5504;47.312;11.060;2022-10-23T11:04:33;22.50;66.30
10903;DHT22;5504;47.312;11.060;2022-10-23T11:07:09;22.60;64.30
10903;DHT22;5504;47.312;11.060;2022-10-23T11:09:37;22.20;65.60
10903;DHT22;5504;47.312;11.060;2022-10-23T11:12:03;22.30;65.50
10903;DHT22;5504;47.312;11.060;2022-10-23T11:14:31;22.40;66.80
10903;DHT22;5504;47.312;11.060;2022-10-23T11:17:04;23.10;66.10
10903;DHT22;5504;47.312;11.060;2022-10-23T11:19:51;23.70;64.40
10903;DHT22;5504;47.312;11.060;2022-10-23T11:34:07;23.30;63.20
10903;DHT22;5504;47.312;11.060;2022-10-23T11:41:52;22.00;63.60
10903;DHT22;5504;47.312;11.060;2022-10-23T11:44:48;21.90;66.50
10903;DHT22;5504;47.312;11.060;2022-10-23T11:47:32;22.10;65.80
10903;DHT22;5504;47.312;11.060;2022-10-23T11:52:35;22.20;64.60
10903;DHT22;5504;47.312;11.060;2022-10-23T12:00:39;22.00;66.20
10903;DHT22;5504;47.312;11.060;2022-10-23T12:03:21;22.30;65.00
10903;DHT22;5504;47.312;11.060;2022-10-23T12:05:56;22.00;62.60
10903;DHT22;5504;47.312;11.060;2022-10-23T12:08:27;22.10;65.70
10903;DHT22;5504;47.312;11.060;2022-10-23T12:10:54;22.80;66.00
10903;DHT22;5504;47.312;11.060;2022-10-23T12:16:02;23.90;63.80
10903;DHT22;5504;47.312;11.060;2022-10-23T12:18:29;24.10;61.10
10903;DHT22;5504;47.312;11.060;2022-10-23T12:39:35;22.90;58.90
10903;DHT22;5504;47.312;11.060;2022-10-23T12:42:26;22.80;60.80
10903;DHT22;5504;47.312;11.060;2022-10-23T12:45:19;23.10;60.10
10903;DHT22;5504;47.312;11.060;2022-10-23T12:47:49;22.80;59.90
10903;DHT22;5504;47.312;11.060;2022-10-23T12:50:27;22.40;61.50
10903;DHT22;5504;47.312;11.060;2022-10-23T12:53:02;22.50;63.40
10903;DHT22;5504;47.312;11.060;2022-10-23T12:55:30;22.60;62.80
10903;DHT22;5504;47.312;11.060;2022-10-23T12:57:57;22.50;61.50
10903;DHT22;5504;47.312;11.060;2022-10-23T13:00:24;22.80;61.60
10903;DHT22;5504;47.312;11.060;2022-10-23T13:03:03;22.90;61.10
10903;DHT22;5504;47.312;11.060;2022-10-23T13:05:29;23.10;61.50
10903;DHT22;5504;47.312;11.060;2022-10-23T13:07:57;23.10;62.00
10903;DHT22;5504;47.312;11.060;2022-10-23T13:10:24;23.30;62.60
10903;DHT22;5504;47.312;11.060;2022-10-23T13:12:59;23.20;63.00
10903;DHT22;5504;47.312;11.060;2022-10-23T13:15:36;23.00;61.40
10903;DHT22;5504;47.312;11.060;2022-10-23T13:18:04;22.90;64.30
10903;DHT22;5504;47.312;11.060;2022-10-23T13:25:52;22.40;64.10
10903;DHT22;5504;47.312;11.060;2022-10-23T13:28:21;22.40;65.00
10903;DHT22;5504;47.312;11.060;2022-10-23T13:33:24;22.00;70.00
10903;DHT22;5504;47.312;11.060;2022-10-23T13:36:02;21.80;69.40
10903;DHT22;5504;47.312;11.060;2022-10-23T13:40:59;21.80;70.70
10903;DHT22;5504;47.312;11.060;2022-10-23T13:43:25;21.60;66.10
10903;DHT22;5504;47.312;11.060;2022-10-23T13:45:52;21.50;68.80
10903;DHT22;5504;47.312;11.060;2022-10-23T13:48:19;21.70;69.00
10903;DHT22;5504;47.312;11.060;2022-10-23T13:50:45;21.50;66.10
10903;DHT22;5504;47.312;11.060;2022-10-23T13:53:11;21.50;67.00
10903;DHT22;5504;47.312;11.060;2022-10-23T13:55:39;21.70;69.80
10903;DHT22;5504;47.312;11.060;2022-10-23T13:58:05;21.80;68.40
10903;DHT22;5504;47.312;11.060;2022-10-23T14:00:31;21.90;68.90
10903;DHT22;5504;47.312;11.060;2022-10-23T14:02:56;22.00;71.00
10903;DHT22;5504;47.312;11.060;2022-10-23T14:05:22;22.20;71.90
10903;DHT22;5504;47.312;11.060;2022-10-23T14:07:48;22.30;73.00
10903;DHT22;5504;47.312;11.060;2022-10-23T14:10:13;22.20;66.40
10903;DHT22;5504;47.312;11.060;2022-10-23T14:12:40;22.10;68.30
10903;DHT22;5504;47.312;11.060;2022-10-23T14:15:07;22.10;72.80
10903;DHT22;5504;47.312;11.060;2022-10-23T14:17:34;22.10;73.90
10903;DHT22;5504;47.312;11.060;2022-10-23T14:20:00;22.10;72.50
10903;DHT22;5504;47.312;11.060;2022-10-23T14:22:26;22.00;70.70
10903;DHT22;5504;47.312;11.060;2022-10-23T14:24:52;21.90;71.90
10903;DHT22;5504;47.312;11.060;2022-10-23T14:27:17;21.90;75.00
10903;DHT22;5504;47.312;11.060;2022-10-23T14:29:43;22.00;75.60
10903;DHT22;5504;47.312;11.060;2022-10-23T14:32:09;21.80;77.70
10903;DHT22;5504;47.312;11.060;2022-10-23T14:34:39;21.60;76.80
10903;DHT22;5504;47.312;11.060;2022-10-23T14:37:06;21.50;77.60
10903;DHT22;5504;47.312;11.060;2022-10-23T14:39:32;21.50;78.40
10903;DHT22;5504;47.312;11.060;2022-10-23T14:41:57;21.60;80.10
10903;DHT22;5504;47.312;11.060;2022-10-23T14:44:23;21.50;81.40
10903;DHT22;5504;47.312;11.060;2022-10-23T14:46:49;21.20;81.70
10903;DHT22;5504;47.312;11.060;2022-10-23T14:49:16;21.00;82.20
10903;DHT22;5504;47.312;11.060;2022-10-23T14:51:42;20.80;81.90
10903;DHT22;5504;47.312;11.060;2022-10-23T14:54:08;20.70;82.30
10903;DHT22;5504;47.312;11.060;2022-10-23T14:56:37;20.60;83.10
10903;DHT22;5504;47.312;11.060;2022-10-23T14:59:05;20.40;84.50
10903;DHT22;5504;47.312;11.060;2022-10-23T15:01:35;20.10;84.00
10903;DHT22;5504;47.312;11.060;2022-10-23T15:04:02;20.00;84.70
10903;DHT22;5504;47.312;11.060;2022-10-23T15:06:28;19.90;85.60
10903;DHT22;5504;47.312;11.060;2022-10-23T15:08:55;19.80;86.00
10903;DHT22;5504;47.312;11.060;2022-10-23T15:11:22;19.80;86.40
10903;DHT22;5504;47.312;11.060;2022-10-23T15:13:48;19.70;87.00
10903;DHT22;5504;47.312;11.060;2022-10-23T15:16:14;19.60;86.90
10903;DHT22;5504;47.312;11.060;2022-10-23T15:18:40;19.40;87.80
10903;DHT22;5504;47.312;11.060;2022-10-23T15:21:07;19.50;86.60
10903;DHT22;5504;47.312;11.060;2022-10-23T15:23:35;19.40;87.00
10903;DHT22;5504;47.312;11.060;2022-10-23T15:26:04;19.30;87.30
10903;DHT22;5504;47.312;11.060;2022-10-23T15:28:31;18.90;88.60
10903;DHT22;5504;47.312;11.060;2022-10-23T15:30:57;18.90;89.50
10903;DHT22;5504;47.312;11.060;2022-10-23T15:33:23;18.90;89.80
10903;DHT22;5504;47.312;11.060;2022-10-23T15:35:50;18.70;89.60
10903;DHT22;5504;47.312;11.060;2022-10-23T15:38:15;18.70;90.10
10903;DHT22;5504;47.312;11.060;2022-10-23T15:40:42;18.60;89.30
10903;DHT22;5504;47.312;11.060;2022-10-23T15:43:10;18.40;90.00
10903;DHT22;5504;47.312;11.060;2022-10-23T15:45:36;18.20;90.00
10903;DHT22;5504;47.312;11.060;2022-10-23T15:48:02;18.20;90.30
10903;DHT22;5504;47.312;11.060;2022-10-23T15:50:27;18.10;90.50
10903;DHT22;5504;47.312;11.060;2022-10-23T15:52:53;18.00;90.60
10903;DHT22;5504;47.312;11.060;2022-10-23T15:55:19;18.00;90.70
10903;DHT22;5504;47.312;11.060;2022-10-23T15:57:45;17.90;90.70
10903;DHT22;5504;47.312;11.060;2022-10-23T16:00:12;17.90;90.50
10903;DHT22;5504;47.312;11.060;2022-10-23T16:02:38;17.80;90.40
10903;DHT22;5504;47.312;11.060;2022-10-23T16:05:04;17.80;90.30
10903;DHT22;5504;47.312;11.060;2022-10-23T16:07:30;17.70;90.40
10903;DHT22;5504;47.312;11.060;2022-10-23T16:09:56;17.60;90.50
10903;DHT22;5504;47.312;11.060;2022-10-23T16:12:22;17.40;90.80
10903;DHT22;5504;47.312;11.060;2022-10-23T16:14:48;17.30;91.00
10903;DHT22;5504;47.312;11.060;2022-10-23T16:17:14;17.20;91.00
10903;DHT22;5504;47.312;11.060;2022-10-23T16:19:40;17.00;91.50
10903;DHT22;5504;47.312;11.060;2022-10-23T16:22:06;16.90;91.70
10903;DHT22;5504;47.312;11.060;2022-10-23T16:24:33;16.60;92.30
10903;DHT22;5504;47.312;11.060;2022-10-23T16:26:59;16.50;92.70
10903;DHT22;5504;47.312;11.060;2022-10-23T16:29:25;16.50;92.30
10903;DHT22;5504;47.312;11.060;2022-10-23T16:31:52;16.60;91.90
10903;DHT22;5504;47.312;11.060;2022-10-23T16:34:19;16.50;91.80
10903;DHT22;5504;47.312;11.060;2022-10-23T16:36:45;16.50;92.10
10903;DHT22;5504;47.312;11.060;2022-10-23T16:39:12;16.30;92.40
10903;DHT22;5504;47.312;11.060;2022-10-23T16:41:38;16.30;92.70
10903;DHT22;5504;47.312;11.060;2022-10-23T16:44:04;16.30;92.30
10903;DHT22;5504;47.312;11.060;2022-10-23T16:46:30;16.30;92.30
10903;DHT22;5504;47.312;11.060;2022-10-23T16:48:56;16.30;92.30
10903;DHT22;5504;47.312;11.060;2022-10-23T16:51:25;16.00;92.60
10903;DHT22;5504;47.312;11.060;2022-10-23T16:53:52;15.80;92.80
10903;DHT22;5504;47.312;11.060;2022-10-23T16:56:21;15.70;93.30
10903;DHT22;5504;47.312;11.060;2022-10-23T16:58:47;15.80;93.10
10903;DHT22;5504;47.312;11.060;2022-10-23T17:01:18;15.90;92.70
10903;DHT22;5504;47.312;11.060;2022-10-23T17:03:46;15.80;92.40
10903;DHT22;5504;47.312;11.060;2022-10-23T17:06:14;15.60;92.70
10903;DHT22;5504;47.312;11.060;2022-10-23T17:08:40;15.60;93.10
10903;DHT22;5504;47.312;11.060;2022-10-23T17:11:15;15.70;92.80
10903;DHT22;5504;47.312;11.060;2022-10-23T17:13:46;15.60;92.70
10903;DHT22;5504;47.312;11.060;2022-10-23T17:16:14;15.80;92.40
10903;DHT22;5504;47.312;11.060;2022-10-23T17:18:41;15.70;92.00
10903;DHT22;5504;47.312;11.060;2022-10-23T17:21:07;15.30;92.50
10903;DHT22;5504;47.312;11.060;2022-10-23T17:23:33;15.30;93.10
10903;DHT22;5504;47.312;11.060;2022-10-23T17:25:59;15.10;93.40
10903;DHT22;5504;47.312;11.060;2022-10-23T17:28:25;15.10;93.70
10903;DHT22;5504;47.312;11.060;2022-10-23T17:30:52;15.00;93.50
10903;DHT22;5504;47.312;11.060;2022-10-23T17:33:18;15.00;93.90
10903;DHT22;5504;47.312;11.060;2022-10-23T17:35:43;15.10;93.60
10903;DHT22;5504;47.312;11.060;2022-10-23T17:38:12;15.00;93.50
10903;DHT22;5504;47.312;11.060;2022-10-23T17:40:43;15.20;93.30
10903;DHT22;5504;47.312;11.060;2022-10-23T17:43:09;15.30;92.90
10903;DHT22;5504;47.312;11.060;2022-10-23T17:45:34;15.10;92.70
10903;DHT22;5504;47.312;11.060;2022-10-23T17:48:00;14.60;93.50
10903;DHT22;5504;47.312;11.060;2022-10-23T17:50:26;14.60;94.00
10903;DHT22;5504;47.312;11.060;2022-10-23T17:52:52;14.60;94.10
10903;DHT22;5504;47.312;11.060;2022-10-23T17:55:17;14.60;94.20
10903;DHT22;5504;47.312;11.060;2022-10-23T17:57:43;14.70;94.30
10903;DHT22;5504;47.312;11.060;2022-10-23T18:00:09;14.80;93.90
10903;DHT22;5504;47.312;11.060;2022-10-23T18:02:35;14.80;93.60
10903;DHT22;5504;47.312;11.060;2022-10-23T18:05:01;14.70;93.70
10903;DHT22;5504;47.312;11.060;2022-10-23T18:07:26;14.60;94.00
10903;DHT22;5504;47.312;11.060;2022-10-23T18:09:52;14.60;94.20
10903;DHT22;5504;47.312;11.060;2022-10-23T18:12:17;14.60;94.00
10903;DHT22;5504;47.312;11.060;2022-10-23T18:14:43;14.50;94.20
10903;DHT22;5504;47.312;11.060;2022-10-23T18:17:09;14.60;93.90
10903;DHT22;5504;47.312;11.060;2022-10-23T18:19:34;14.60;93.60